sensor_id;sensor_type;location;lat;lon;timestamp;P1;durP1;ratioP1;P2;durP2;ratioP2
12038;SDS011;6080;48.818;9.526;2023-05-18T03:02:17;13.10;;;12.00;;
12038;SDS011;6080;48.818;9.526;2023-05-18T03:04:47;21.13;;;19.57;;
12038;SDS011;6080;48.818;9.526;2023-05-18T03:07:21;23.53;;;21.57;;
12038;SDS011;6080;48.818;9.526;2023-05-18T03:09:47;15.87;;;14.43;;
12038;SDS011;6080;48.818;9.526;2023-05-18T03:12:13;11.97;;;11.00;;
12038;SDS011;6080;48.818;9.526;2023-05-18T03:14:39;21.43;;;19.60;;
12038;SDS011;6080;48.818;9.526;2023-05-18T03:17:05;17.47;;;16.17;;
12038;SDS011;6080;48.818;9.526;2023-05-18T03:19:31;19.80;;;18.23;;
12038;SDS011;6080;48.818;9.526;2023-05-18T03:21:59;17.60;;;16.30;;
12038;SDS011;6080;48.818;9.526;2023-05-18T03:24:25;16.67;;;15.07;;
12038;SDS011;6080;48.818;9.526;2023-05-18T03:26:54;18.63;;;17.20;;
12038;SDS011;6080;48.818;9.526;2023-05-18T03:29:21;25.37;;;23.37;;
12038;SDS011;6080;48.818;9.526;2023-05-18T03:31:47;17.40;;;15.70;;
12038;SDS011;6080;48.818;9.526;2023-05-18T03:34:13;22.17;;;20.13;;
12038;SDS011;6080;48.818;9.526;2023-05-18T03:36:39;19.97;;;18.37;;
12038;SDS011;6080;48.818;9.526;2023-05-18T03:39:06;21.10;;;19.20;;
12038;SDS011;6080;48.818;9.526;2023-05-18T03:41:32;20.97;;;19.27;;
12038;SDS011;6080;48.818;9.526;2023-05-18T03:43:58;22.77;;;20.93;;
12038;SDS011;6080;48.818;9.526;2023-05-18T03:46:24;23.70;;;21.90;;
12038;SDS011;6080;48.818;9.526;2023-05-18T03:48:51;23.37;;;21.67;;
12038;SDS011;6080;48.818;9.526;2023-05-18T03:51:18;22.63;;;20.77;;
12038;SDS011;6080;48.818;9.526;2023-05-18T03:53:44;25.07;;;22.97;;
12038;SDS011;6080;48.818;9.526;2023-05-18T03:56:11;21.53;;;19.83;;
12038;SDS011;6080;48.818;9.526;2023-05-18T03:58:37;20.47;;;19.07;;
12038;SDS011;6080;48.818;9.526;2023-05-18T04:01:03;25.03;;;22.97;;
12038;SDS011;6080;48.818;9.526;2023-05-18T04:03:29;21.37;;;19.53;;
12038;SDS011;6080;48.818;9.526;2023-05-18T04:05:55;22.07;;;20.43;;
12038;SDS011;6080;48.818;9.526;2023-05-18T04:08:21;21.63;;;19.77;;
12038;SDS011;6080;48.818;9.526;2023-05-18T04:10:49;22.83;;;20.73;;
12038;SDS011;6080;48.818;9.526;2023-05-18T04:13:16;24.50;;;22.47;;
12038;SDS011;6080;48.818;9.526;2023-05-18T04:15:42;15.97;;;14.20;;
12038;SDS011;6080;48.818;9.526;2023-05-18T04:18:07;14.07;;;12.70;;
12038;SDS011;6080;48.818;9.526;2023-05-18T04:20:34;13.77;;;12.40;;
12038;SDS011;6080;48.818;9.526;2023-05-18T04:23:02;15.70;;;14.30;;
12038;SDS011;6080;48.818;9.526;2023-05-18T04:25:29;14.57;;;13.27;;
12038;SDS011;6080;48.818;9.526;2023-05-18T04:27:55;15.00;;;13.60;;
12038;SDS011;6080;48.818;9.526;2023-05-18T04:30:21;14.50;;;13.17;;
12038;SDS011;6080;48.818;9.526;2023-05-18T04:32:48;17.47;;;15.30;;
12038;SDS011;6080;48.818;9.526;2023-05-18T04:35:15;16.30;;;15.03;;
12038;SDS011;6080;48.818;9.526;2023-05-18T04:37:41;14.50;;;12.27;;
12038;SDS011;6080;48.818;9.526;2023-05-18T04:40:10;11.30;;;8.93;;
12038;SDS011;6080;48.818;9.526;2023-05-18T04:42:41;11.57;;;9.87;;
12038;SDS011;6080;48.818;9.526;2023-05-18T04:45:18;9.83;;;8.93;;
12038;SDS011;6080;48.818;9.526;2023-05-18T04:47:46;10.60;;;9.60;;
12038;SDS011;6080;48.818;9.526;2023-05-18T04:50:17;11.20;;;9.00;;
12038;SDS011;6080;48.818;9.526;2023-05-18T04:52:45;11.47;;;9.73;;
12038;SDS011;6080;48.818;9.526;2023-05-18T04:55:19;12.83;;;11.60;;
12038;SDS011;6080;48.818;9.526;2023-05-18T04:57:52;16.10;;;10.53;;
12038;SDS011;6080;48.818;9.526;2023-05-18T05:00:22;15.17;;;13.60;;
12038;SDS011;6080;48.818;9.526;2023-05-18T05:02:49;10.53;;;9.53;;
12038;SDS011;6080;48.818;9.526;2023-05-18T05:05:15;14.10;;;12.70;;
12038;SDS011;6080;48.818;9.526;2023-05-18T05:07:41;13.07;;;11.90;;
12038;SDS011;6080;48.818;9.526;2023-05-18T05:10:07;12.40;;;11.10;;
12038;SDS011;6080;48.818;9.526;2023-05-18T05:12:35;12.70;;;10.47;;
12038;SDS011;6080;48.818;9.526;2023-05-18T05:15:01;17.30;;;15.63;;
12038;SDS011;6080;48.818;9.526;2023-05-18T05:17:27;39.87;;;37.57;;
12038;SDS011;6080;48.818;9.526;2023-05-18T05:19:53;15.80;;;13.40;;
12038;SDS011;6080;48.818;9.526;2023-05-18T05:22:18;26.70;;;25.00;;
12038;SDS011;6080;48.818;9.526;2023-05-18T05:24:44;19.13;;;17.70;;
12038;SDS011;6080;48.818;9.526;2023-05-18T05:27:10;15.63;;;14.53;;
12038;SDS011;6080;48.818;9.526;2023-05-18T05:29:36;14.83;;;13.73;;
12038;SDS011;6080;48.818;9.526;2023-05-18T05:32:02;9.73;;;8.97;;
12038;SDS011;6080;48.818;9.526;2023-05-18T05:34:27;13.77;;;11.27;;
12038;SDS011;6080;48.818;9.526;2023-05-18T05:36:53;13.53;;;12.33;;
12038;SDS011;6080;48.818;9.526;2023-05-18T05:39:19;22.13;;;20.53;;
12038;SDS011;6080;48.818;9.526;2023-05-18T05:41:45;31.30;;;29.43;;
12038;SDS011;6080;48.818;9.526;2023-05-18T05:44:10;22.53;;;21.07;;
12038;SDS011;6080;48.818;9.526;2023-05-18T05:46:36;11.87;;;10.87;;
12038;SDS011;6080;48.818;9.526;2023-05-18T05:49:02;8.83;;;8.03;;
12038;SDS011;6080;48.818;9.526;2023-05-18T05:51:28;8.00;;;6.47;;
12038;SDS011;6080;48.818;9.526;2023-05-18T05:53:53;8.03;;;7.27;;
12038;SDS011;6080;48.818;9.526;2023-05-18T05:56:19;9.17;;;7.20;;
12038;SDS011;6080;48.818;9.526;2023-05-18T05:58:45;9.13;;;8.27;;
12038;SDS011;6080;48.818;9.526;2023-05-18T06:01:11;8.80;;;8.10;;
12038;SDS011;6080;48.818;9.526;2023-05-18T06:03:37;11.13;;;10.13;;
12038;SDS011;6080;48.818;9.526;2023-05-18T06:06:03;13.10;;;11.80;;
12038;SDS011;6080;48.818;9.526;2023-05-18T06:08:28;13.37;;;12.30;;
12038;SDS011;6080;48.818;9.526;2023-05-18T06:10:55;10.53;;;9.63;;
12038;SDS011;6080;48.818;9.526;2023-05-18T06:13:20;8.80;;;8.00;;
12038;SDS011;6080;48.818;9.526;2023-05-18T06:15:46;7.17;;;6.47;;
12038;SDS011;6080;48.818;9.526;2023-05-18T06:18:12;9.50;;;7.60;;
12038;SDS011;6080;48.818;9.526;2023-05-18T06:20:39;8.53;;;6.80;;
12038;SDS011;6080;48.818;9.526;2023-05-18T06:23:05;7.33;;;6.03;;
12038;SDS011;6080;48.818;9.526;2023-05-18T06:25:30;9.40;;;6.67;;
12038;SDS011;6080;48.818;9.526;2023-05-18T06:27:56;8.30;;;7.70;;
12038;SDS011;6080;48.818;9.526;2023-05-18T06:30:22;7.37;;;6.77;;
12038;SDS011;6080;48.818;9.526;2023-05-18T06:32:48;13.00;;;11.13;;
12038;SDS011;6080;48.818;9.526;2023-05-18T06:35:14;8.93;;;8.23;;
12038;SDS011;6080;48.818;9.526;2023-05-18T06:37:39;15.23;;;9.10;;
12038;SDS011;6080;48.818;9.526;2023-05-18T06:40:05;10.93;;;9.87;;
12038;SDS011;6080;48.818;9.526;2023-05-18T06:42:32;10.60;;;9.43;;
12038;SDS011;6080;48.818;9.526;2023-05-18T06:44:58;12.53;;;11.70;;
12038;SDS011;6080;48.818;9.526;2023-05-18T06:47:24;10.13;;;8.67;;
12038;SDS011;6080;48.818;9.526;2023-05-18T06:49:50;12.63;;;11.40;;
12038;SDS011;6080;48.818;9.526;2023-05-18T06:52:16;12.70;;;11.37;;
12038;SDS011;6080;48.818;9.526;2023-05-18T06:54:41;12.33;;;11.33;;
12038;SDS011;6080;48.818;9.526;2023-05-18T06:57:07;9.30;;;8.37;;
12038;SDS011;6080;48.818;9.526;2023-05-18T06:59:33;9.20;;;7.47;;
12038;SDS011;6080;48.818;9.526;2023-05-18T07:01:59;9.13;;;5.37;;
12038;SDS011;6080;48.818;9.526;2023-05-18T07:07:00;6.90;;;6.07;;
12038;SDS011;6080;48.818;9.526;2023-05-18T07:09:26;10.50;;;5.63;;
12038;SDS011;6080;48.818;9.526;2023-05-18T07:11:52;7.90;;;5.00;;
12038;SDS011;6080;48.818;9.526;2023-05-18T07:14:17;7.03;;;5.40;;
12038;SDS011;6080;48.818;9.526;2023-05-18T07:16:43;6.77;;;5.87;;
12038;SDS011;6080;48.818;9.526;2023-05-18T07:19:11;8.87;;;6.23;;
12038;SDS011;6080;48.818;9.526;2023-05-18T07:21:38;10.63;;;5.80;;
12038;SDS011;6080;48.818;9.526;2023-05-18T07:24:03;6.20;;;5.43;;
12038;SDS011;6080;48.818;9.526;2023-05-18T07:26:30;8.20;;;5.17;;
12038;SDS011;6080;48.818;9.526;2023-05-18T07:28:56;5.70;;;5.17;;
12038;SDS011;6080;48.818;9.526;2023-05-18T07:31:22;6.53;;;5.10;;
12038;SDS011;6080;48.818;9.526;2023-05-18T07:33:48;11.03;;;8.67;;
12038;SDS011;6080;48.818;9.526;2023-05-18T07:36:14;9.70;;;8.37;;
12038;SDS011;6080;48.818;9.526;2023-05-18T07:38:40;9.20;;;8.10;;
12038;SDS011;6080;48.818;9.526;2023-05-18T07:41:06;11.07;;;10.03;;
12038;SDS011;6080;48.818;9.526;2023-05-18T07:43:31;14.73;;;8.63;;
12038;SDS011;6080;48.818;9.526;2023-05-18T07:45:57;8.13;;;7.40;;
12038;SDS011;6080;48.818;9.526;2023-05-18T07:48:23;9.20;;;8.43;;
12038;SDS011;6080;48.818;9.526;2023-05-18T07:50:49;11.53;;;9.07;;
12038;SDS011;6080;48.818;9.526;2023-05-18T07:53:14;8.10;;;7.37;;
12038;SDS011;6080;48.818;9.526;2023-05-18T07:55:40;9.37;;;6.00;;
12038;SDS011;6080;48.818;9.526;2023-05-18T07:58:06;6.53;;;5.93;;
12038;SDS011;6080;48.818;9.526;2023-05-18T08:00:32;6.30;;;5.80;;
12038;SDS011;6080;48.818;9.526;2023-05-18T08:02:58;4.77;;;4.23;;
12038;SDS011;6080;48.818;9.526;2023-05-18T08:05:25;11.47;;;6.37;;
12038;SDS011;6080;48.818;9.526;2023-05-18T08:07:51;8.80;;;5.10;;
12038;SDS011;6080;48.818;9.526;2023-05-18T08:10:16;10.73;;;5.77;;
12038;SDS011;6080;48.818;9.526;2023-05-18T08:12:42;11.33;;;4.80;;
12038;SDS011;6080;48.818;9.526;2023-05-18T08:15:08;6.33;;;5.17;;
12038;SDS011;6080;48.818;9.526;2023-05-18T08:17:35;8.40;;;5.27;;
12038;SDS011;6080;48.818;9.526;2023-05-18T08:20:01;6.77;;;4.77;;
12038;SDS011;6080;48.818;9.526;2023-05-18T08:22:29;7.00;;;5.07;;
12038;SDS011;6080;48.818;9.526;2023-05-18T08:24:54;8.97;;;5.40;;
12038;SDS011;6080;48.818;9.526;2023-05-18T08:27:22;7.53;;;5.30;;
12038;SDS011;6080;48.818;9.526;2023-05-18T08:29:47;5.30;;;4.80;;
12038;SDS011;6080;48.818;9.526;2023-05-18T08:32:13;9.47;;;5.00;;
12038;SDS011;6080;48.818;9.526;2023-05-18T08:34:39;9.10;;;4.50;;
12038;SDS011;6080;48.818;9.526;2023-05-18T08:37:05;6.07;;;4.37;;
12038;SDS011;6080;48.818;9.526;2023-05-18T08:39:31;7.90;;;4.90;;
12038;SDS011;6080;48.818;9.526;2023-05-18T08:42:10;5.23;;;4.63;;
12038;SDS011;6080;48.818;9.526;2023-05-18T08:44:49;11.43;;;5.23;;
12038;SDS011;6080;48.818;9.526;2023-05-18T08:47:23;6.67;;;4.90;;
12038;SDS011;6080;48.818;9.526;2023-05-18T08:49:51;7.77;;;5.93;;
12038;SDS011;6080;48.818;9.526;2023-05-18T08:52:20;9.93;;;5.70;;
12038;SDS011;6080;48.818;9.526;2023-05-18T08:54:51;5.73;;;4.63;;
12038;SDS011;6080;48.818;9.526;2023-05-18T08:57:18;11.13;;;5.70;;
12038;SDS011;6080;48.818;9.526;2023-05-18T08:59:46;7.77;;;5.93;;
12038;SDS011;6080;48.818;9.526;2023-05-18T09:02:13;12.53;;;5.83;;
12038;SDS011;6080;48.818;9.526;2023-05-18T09:04:39;7.87;;;5.43;;
12038;SDS011;6080;48.818;9.526;2023-05-18T09:07:06;7.10;;;5.17;;
12038;SDS011;6080;48.818;9.526;2023-05-18T09:09:34;6.77;;;5.70;;
12038;SDS011;6080;48.818;9.526;2023-05-18T09:12:00;7.33;;;5.77;;
12038;SDS011;6080;48.818;9.526;2023-05-18T09:14:26;10.50;;;5.53;;
12038;SDS011;6080;48.818;9.526;2023-05-18T09:16:53;7.37;;;5.87;;
12038;SDS011;6080;48.818;9.526;2023-05-18T09:19:20;7.17;;;5.47;;
12038;SDS011;6080;48.818;9.526;2023-05-18T09:21:45;6.87;;;5.63;;
12038;SDS011;6080;48.818;9.526;2023-05-18T09:24:11;12.47;;;6.10;;
12038;SDS011;6080;48.818;9.526;2023-05-18T09:26:37;6.30;;;4.50;;
12038;SDS011;6080;48.818;9.526;2023-05-18T09:29:16;9.83;;;5.33;;
12038;SDS011;6080;48.818;9.526;2023-05-18T09:31:46;9.33;;;5.80;;
12038;SDS011;6080;48.818;9.526;2023-05-18T09:34:15;6.47;;;4.60;;
12038;SDS011;6080;48.818;9.526;2023-05-18T09:36:52;6.63;;;5.07;;
12038;SDS011;6080;48.818;9.526;2023-05-18T09:39:18;4.63;;;4.30;;
12038;SDS011;6080;48.818;9.526;2023-05-18T09:41:44;5.43;;;4.80;;
12038;SDS011;6080;48.818;9.526;2023-05-18T09:44:09;12.60;;;5.60;;
12038;SDS011;6080;48.818;9.526;2023-05-18T09:46:39;10.30;;;5.93;;
12038;SDS011;6080;48.818;9.526;2023-05-18T09:49:06;5.67;;;5.27;;
12038;SDS011;6080;48.818;9.526;2023-05-18T09:51:37;6.03;;;4.30;;
12038;SDS011;6080;48.818;9.526;2023-05-18T09:54:03;6.13;;;4.90;;
12038;SDS011;6080;48.818;9.526;2023-05-18T09:56:33;7.03;;;6.07;;
12038;SDS011;6080;48.818;9.526;2023-05-18T09:59:07;8.57;;;5.67;;
12038;SDS011;6080;48.818;9.526;2023-05-18T10:01:34;9.70;;;8.93;;
12038;SDS011;6080;48.818;9.526;2023-05-18T10:04:03;14.63;;;13.17;;
12038;SDS011;6080;48.818;9.526;2023-05-18T10:06:29;21.43;;;20.17;;
12038;SDS011;6080;48.818;9.526;2023-05-18T10:08:56;34.87;;;32.70;;
12038;SDS011;6080;48.818;9.526;2023-05-18T10:11:25;31.00;;;28.83;;
12038;SDS011;6080;48.818;9.526;2023-05-18T10:13:55;31.80;;;29.27;;
12038;SDS011;6080;48.818;9.526;2023-05-18T10:16:23;32.83;;;30.63;;
12038;SDS011;6080;48.818;9.526;2023-05-18T10:18:49;34.70;;;32.83;;
12038;SDS011;6080;48.818;9.526;2023-05-18T10:21:18;33.63;;;31.67;;
12038;SDS011;6080;48.818;9.526;2023-05-18T10:23:46;23.70;;;21.63;;
12038;SDS011;6080;48.818;9.526;2023-05-18T10:26:15;31.90;;;29.80;;
12038;SDS011;6080;48.818;9.526;2023-05-18T10:28:44;26.60;;;25.02;;
12038;SDS011;6080;48.818;9.526;2023-05-18T10:31:14;20.08;;;18.83;;
12038;SDS011;6080;48.818;9.526;2023-05-18T10:33:41;12.20;;;10.97;;
12038;SDS011;6080;48.818;9.526;2023-05-18T10:36:08;12.70;;;7.57;;
12038;SDS011;6080;48.818;9.526;2023-05-18T10:38:35;9.73;;;8.85;;
12038;SDS011;6080;48.818;9.526;2023-05-18T10:41:03;8.38;;;7.45;;
12038;SDS011;6080;48.818;9.526;2023-05-18T10:43:30;7.53;;;5.75;;
12038;SDS011;6080;48.818;9.526;2023-05-18T10:45:58;7.10;;;5.63;;
12038;SDS011;6080;48.818;9.526;2023-05-18T10:48:26;6.40;;;5.80;;
12038;SDS011;6080;48.818;9.526;2023-05-18T10:50:53;5.13;;;4.65;;
12038;SDS011;6080;48.818;9.526;2023-05-18T10:53:21;6.90;;;5.10;;
12038;SDS011;6080;48.818;9.526;2023-05-18T10:55:50;8.75;;;5.38;;
12038;SDS011;6080;48.818;9.526;2023-05-18T10:58:19;6.28;;;4.90;;
12038;SDS011;6080;48.818;9.526;2023-05-18T11:00:47;9.18;;;4.80;;
12038;SDS011;6080;48.818;9.526;2023-05-18T11:03:16;7.60;;;4.78;;
12038;SDS011;6080;48.818;9.526;2023-05-18T11:05:47;3.90;;;3.40;;
12038;SDS011;6080;48.818;9.526;2023-05-18T11:08:24;5.35;;;4.85;;
12038;SDS011;6080;48.818;9.526;2023-05-18T11:10:51;5.30;;;4.80;;
12038;SDS011;6080;48.818;9.526;2023-05-18T11:13:32;6.05;;;5.25;;
12038;SDS011;6080;48.818;9.526;2023-05-18T11:18:47;6.90;;;4.30;;
12038;SDS011;6080;48.818;9.526;2023-05-18T11:26:40;6.25;;;4.15;;
12038;SDS011;6080;48.818;9.526;2023-05-18T11:29:18;4.93;;;4.53;;
12038;SDS011;6080;48.818;9.526;2023-05-18T11:31:51;6.10;;;4.65;;
12038;SDS011;6080;48.818;9.526;2023-05-18T11:40:02;9.82;;;5.28;;
12038;SDS011;6080;48.818;9.526;2023-05-18T11:42:33;7.22;;;5.00;;
12038;SDS011;6080;48.818;9.526;2023-05-18T11:45:04;6.80;;;4.47;;
12038;SDS011;6080;48.818;9.526;2023-05-18T11:47:34;6.05;;;3.83;;
12038;SDS011;6080;48.818;9.526;2023-05-18T11:50:02;9.07;;;4.97;;
12038;SDS011;6080;48.818;9.526;2023-05-18T11:52:31;8.93;;;4.57;;
12038;SDS011;6080;48.818;9.526;2023-05-18T11:54:58;5.40;;;4.32;;
12038;SDS011;6080;48.818;9.526;2023-05-18T12:00:00;4.82;;;4.13;;
12038;SDS011;6080;48.818;9.526;2023-05-18T12:02:32;7.07;;;4.88;;
12038;SDS011;6080;48.818;9.526;2023-05-18T12:04:59;9.02;;;4.57;;
12038;SDS011;6080;48.818;9.526;2023-05-18T12:07:29;5.38;;;4.85;;
12038;SDS011;6080;48.818;9.526;2023-05-18T12:10:12;4.60;;;4.00;;
12038;SDS011;6080;48.818;9.526;2023-05-18T12:12:38;6.32;;;4.03;;
12038;SDS011;6080;48.818;9.526;2023-05-18T12:15:06;5.45;;;4.18;;
12038;SDS011;6080;48.818;9.526;2023-05-18T12:17:40;6.47;;;5.47;;
12038;SDS011;6080;48.818;9.526;2023-05-18T12:20:13;11.55;;;10.73;;
12038;SDS011;6080;48.818;9.526;2023-05-18T12:22:45;12.80;;;11.82;;
12038;SDS011;6080;48.818;9.526;2023-05-18T12:25:16;9.93;;;9.10;;
12038;SDS011;6080;48.818;9.526;2023-05-18T12:27:43;10.80;;;9.90;;
12038;SDS011;6080;48.818;9.526;2023-05-18T12:30:10;8.93;;;8.23;;
12038;SDS011;6080;48.818;9.526;2023-05-18T12:32:37;7.40;;;6.93;;
12038;SDS011;6080;48.818;9.526;2023-05-18T12:35:08;8.68;;;6.22;;
12038;SDS011;6080;48.818;9.526;2023-05-18T12:37:40;8.13;;;5.82;;
12038;SDS011;6080;48.818;9.526;2023-05-18T12:40:08;7.13;;;4.45;;
12038;SDS011;6080;48.818;9.526;2023-05-18T12:42:34;5.72;;;5.15;;
12038;SDS011;6080;48.818;9.526;2023-05-18T12:45:00;7.32;;;6.03;;
12038;SDS011;6080;48.818;9.526;2023-05-18T12:47:25;6.28;;;5.63;;
12038;SDS011;6080;48.818;9.526;2023-05-18T12:49:56;6.50;;;5.65;;
12038;SDS011;6080;48.818;9.526;2023-05-18T12:52:26;9.05;;;6.22;;
12038;SDS011;6080;48.818;9.526;2023-05-18T12:54:56;5.60;;;5.25;;
12038;SDS011;6080;48.818;9.526;2023-05-18T12:57:25;10.68;;;4.85;;
12038;SDS011;6080;48.818;9.526;2023-05-18T12:59:55;7.57;;;5.25;;
12038;SDS011;6080;48.818;9.526;2023-05-18T13:05:05;9.05;;;5.38;;
12038;SDS011;6080;48.818;9.526;2023-05-18T13:07:39;7.22;;;6.53;;
12038;SDS011;6080;48.818;9.526;2023-05-18T13:10:10;8.75;;;7.90;;
12038;SDS011;6080;48.818;9.526;2023-05-18T13:12:47;7.97;;;6.97;;
12038;SDS011;6080;48.818;9.526;2023-05-18T13:15:20;7.97;;;6.93;;
12038;SDS011;6080;48.818;9.526;2023-05-18T13:20:16;9.25;;;8.35;;
12038;SDS011;6080;48.818;9.526;2023-05-18T13:22:42;8.57;;;7.82;;
12038;SDS011;6080;48.818;9.526;2023-05-18T13:25:08;11.48;;;9.32;;
12038;SDS011;6080;48.818;9.526;2023-05-18T13:27:34;10.35;;;9.55;;
12038;SDS011;6080;48.818;9.526;2023-05-18T13:30:00;9.98;;;9.20;;
12038;SDS011;6080;48.818;9.526;2023-05-18T13:32:26;10.65;;;9.80;;
12038;SDS011;6080;48.818;9.526;2023-05-18T13:34:52;9.77;;;8.50;;
12038;SDS011;6080;48.818;9.526;2023-05-18T13:37:18;11.93;;;10.75;;
12038;SDS011;6080;48.818;9.526;2023-05-18T13:39:44;10.07;;;9.10;;
12038;SDS011;6080;48.818;9.526;2023-05-18T13:42:09;8.07;;;7.47;;
12038;SDS011;6080;48.818;9.526;2023-05-18T13:44:36;11.05;;;8.38;;
12038;SDS011;6080;48.818;9.526;2023-05-18T13:47:02;10.70;;;8.75;;
12038;SDS011;6080;48.818;9.526;2023-05-18T13:49:28;11.20;;;10.32;;
12038;SDS011;6080;48.818;9.526;2023-05-18T13:51:54;11.02;;;10.13;;
12038;SDS011;6080;48.818;9.526;2023-05-18T13:54:19;12.07;;;9.68;;
12038;SDS011;6080;48.818;9.526;2023-05-18T13:56:45;6.78;;;6.18;;
12038;SDS011;6080;48.818;9.526;2023-05-18T13:59:12;4.95;;;4.15;;
12038;SDS011;6080;48.818;9.526;2023-05-18T14:01:40;4.75;;;4.35;;
12038;SDS011;6080;48.818;9.526;2023-05-18T14:04:06;5.93;;;5.43;;
12038;SDS011;6080;48.818;9.526;2023-05-18T14:06:32;6.15;;;4.88;;
12038;SDS011;6080;48.818;9.526;2023-05-18T14:08:57;7.95;;;7.38;;
12038;SDS011;6080;48.818;9.526;2023-05-18T14:11:23;7.53;;;6.93;;
12038;SDS011;6080;48.818;9.526;2023-05-18T14:13:49;11.10;;;8.93;;
12038;SDS011;6080;48.818;9.526;2023-05-18T14:16:15;8.13;;;6.75;;
12038;SDS011;6080;48.818;9.526;2023-05-18T14:18:40;7.75;;;6.55;;
12038;SDS011;6080;48.818;9.526;2023-05-18T14:21:06;12.95;;;7.75;;
12038;SDS011;6080;48.818;9.526;2023-05-18T14:23:32;7.85;;;5.05;;
12038;SDS011;6080;48.818;9.526;2023-05-18T14:25:57;6.85;;;6.35;;
12038;SDS011;6080;48.818;9.526;2023-05-18T14:28:23;8.63;;;7.90;;
12038;SDS011;6080;48.818;9.526;2023-05-18T14:30:49;6.47;;;5.53;;
12038;SDS011;6080;48.818;9.526;2023-05-18T14:33:15;5.85;;;5.22;;
12038;SDS011;6080;48.818;9.526;2023-05-18T14:35:41;9.82;;;4.85;;
12038;SDS011;6080;48.818;9.526;2023-05-18T14:38:06;9.05;;;4.75;;
12038;SDS011;6080;48.818;9.526;2023-05-18T14:40:32;5.78;;;4.68;;
12038;SDS011;6080;48.818;9.526;2023-05-18T14:42:58;7.63;;;5.60;;
12038;SDS011;6080;48.818;9.526;2023-05-18T14:45:23;5.55;;;4.28;;
12038;SDS011;6080;48.818;9.526;2023-05-18T14:47:49;8.00;;;5.07;;
12038;SDS011;6080;48.818;9.526;2023-05-18T14:50:15;21.63;;;7.03;;
12038;SDS011;6080;48.818;9.526;2023-05-18T14:52:41;6.00;;;4.85;;
12038;SDS011;6080;48.818;9.526;2023-05-18T14:55:06;7.63;;;5.40;;
12038;SDS011;6080;48.818;9.526;2023-05-18T14:57:33;7.43;;;4.90;;
12038;SDS011;6080;48.818;9.526;2023-05-18T14:59:58;3.97;;;3.78;;
12038;SDS011;6080;48.818;9.526;2023-05-18T15:02:24;8.25;;;4.38;;
12038;SDS011;6080;48.818;9.526;2023-05-18T15:04:50;5.97;;;4.22;;
12038;SDS011;6080;48.818;9.526;2023-05-18T15:07:16;5.07;;;4.57;;
12038;SDS011;6080;48.818;9.526;2023-05-18T15:09:42;5.78;;;4.18;;
12038;SDS011;6080;48.818;9.526;2023-05-18T15:12:08;5.13;;;4.57;;
12038;SDS011;6080;48.818;9.526;2023-05-18T15:14:34;7.03;;;4.47;;
12038;SDS011;6080;48.818;9.526;2023-05-18T15:16:59;6.78;;;5.07;;
12038;SDS011;6080;48.818;9.526;2023-05-18T15:19:25;5.88;;;5.28;;
12038;SDS011;6080;48.818;9.526;2023-05-18T15:21:51;7.22;;;5.28;;
12038;SDS011;6080;48.818;9.526;2023-05-18T15:24:17;8.15;;;4.63;;
12038;SDS011;6080;48.818;9.526;2023-05-18T15:26:42;4.97;;;4.53;;
12038;SDS011;6080;48.818;9.526;2023-05-18T15:29:08;7.22;;;3.97;;
12038;SDS011;6080;48.818;9.526;2023-05-18T15:31:34;6.63;;;4.93;;
12038;SDS011;6080;48.818;9.526;2023-05-18T15:34:03;8.17;;;5.27;;
12038;SDS011;6080;48.818;9.526;2023-05-18T15:36:29;7.60;;;6.03;;
12038;SDS011;6080;48.818;9.526;2023-05-18T15:38:56;8.53;;;5.90;;
12038;SDS011;6080;48.818;9.526;2023-05-18T15:41:23;8.33;;;5.63;;
12038;SDS011;6080;48.818;9.526;2023-05-18T15:43:50;9.10;;;8.40;;
12038;SDS011;6080;48.818;9.526;2023-05-18T15:46:16;10.83;;;9.87;;
12038;SDS011;6080;48.818;9.526;2023-05-18T15:48:42;14.00;;;12.90;;
12038;SDS011;6080;48.818;9.526;2023-05-18T15:51:07;10.80;;;7.87;;
12038;SDS011;6080;48.818;9.526;2023-05-18T15:53:33;7.73;;;7.13;;
12038;SDS011;6080;48.818;9.526;2023-05-18T15:55:59;15.37;;;12.87;;
12038;SDS011;6080;48.818;9.526;2023-05-18T15:58:25;16.20;;;15.17;;
12038;SDS011;6080;48.818;9.526;2023-05-18T16:00:50;16.07;;;14.77;;
12038;SDS011;6080;48.818;9.526;2023-05-18T16:03:16;13.10;;;12.10;;
12038;SDS011;6080;48.818;9.526;2023-05-18T16:05:43;13.13;;;12.20;;
12038;SDS011;6080;48.818;9.526;2023-05-18T16:08:08;11.93;;;11.20;;
12038;SDS011;6080;48.818;9.526;2023-05-18T16:10:34;7.53;;;6.83;;
12038;SDS011;6080;48.818;9.526;2023-05-18T16:13:00;8.35;;;7.75;;
12038;SDS011;6080;48.818;9.526;2023-05-18T16:15:31;6.28;;;5.78;;
12038;SDS011;6080;48.818;9.526;2023-05-18T16:17:58;5.85;;;4.72;;
12038;SDS011;6080;48.818;9.526;2023-05-18T16:20:23;4.68;;;4.28;;
12038;SDS011;6080;48.818;9.526;2023-05-18T16:22:50;8.85;;;5.20;;
12038;SDS011;6080;48.818;9.526;2023-05-18T16:25:16;5.40;;;4.85;;
12038;SDS011;6080;48.818;9.526;2023-05-18T16:27:41;7.85;;;4.20;;
12038;SDS011;6080;48.818;9.526;2023-05-18T16:30:07;4.80;;;4.38;;
12038;SDS011;6080;48.818;9.526;2023-05-18T16:32:33;5.57;;;4.90;;
12038;SDS011;6080;48.818;9.526;2023-05-18T16:34:59;9.45;;;4.95;;
12038;SDS011;6080;48.818;9.526;2023-05-18T16:37:26;5.43;;;4.97;;
12038;SDS011;6080;48.818;9.526;2023-05-18T16:39:52;7.18;;;6.50;;
12038;SDS011;6080;48.818;9.526;2023-05-18T16:42:18;10.25;;;9.55;;
12038;SDS011;6080;48.818;9.526;2023-05-18T16:44:44;16.03;;;14.60;;
12038;SDS011;6080;48.818;9.526;2023-05-18T16:47:10;14.87;;;13.87;;
12038;SDS011;6080;48.818;9.526;2023-05-18T16:49:36;15.85;;;14.40;;
12038;SDS011;6080;48.818;9.526;2023-05-18T16:52:02;17.27;;;16.07;;
12038;SDS011;6080;48.818;9.526;2023-05-18T16:54:27;19.37;;;18.13;;
12038;SDS011;6080;48.818;9.526;2023-05-18T16:56:53;21.03;;;19.90;;
12038;SDS011;6080;48.818;9.526;2023-05-18T16:59:19;21.03;;;19.63;;
12038;SDS011;6080;48.818;9.526;2023-05-18T17:01:46;18.97;;;17.50;;
12038;SDS011;6080;48.818;9.526;2023-05-18T17:04:12;19.07;;;17.80;;
12038;SDS011;6080;48.818;9.526;2023-05-18T17:06:38;22.70;;;20.90;;
12038;SDS011;6080;48.818;9.526;2023-05-18T17:09:04;20.35;;;18.85;;
12038;SDS011;6080;48.818;9.526;2023-05-18T17:11:30;16.50;;;15.38;;
12038;SDS011;6080;48.818;9.526;2023-05-18T17:13:56;22.17;;;19.17;;
12038;SDS011;6080;48.818;9.526;2023-05-18T17:16:23;19.93;;;18.27;;
12038;SDS011;6080;48.818;9.526;2023-05-18T17:18:50;19.07;;;17.93;;
12038;SDS011;6080;48.818;9.526;2023-05-18T17:21:18;20.23;;;18.93;;
12038;SDS011;6080;48.818;9.526;2023-05-18T17:23:44;19.50;;;18.17;;
12038;SDS011;6080;48.818;9.526;2023-05-18T17:26:10;21.67;;;20.07;;
12038;SDS011;6080;48.818;9.526;2023-05-18T17:28:36;21.87;;;20.57;;
12038;SDS011;6080;48.818;9.526;2023-05-18T17:31:02;20.47;;;19.30;;
12038;SDS011;6080;48.818;9.526;2023-05-18T17:33:27;20.70;;;19.37;;
12038;SDS011;6080;48.818;9.526;2023-05-18T17:35:53;18.00;;;17.00;;
12038;SDS011;6080;48.818;9.526;2023-05-18T17:38:19;15.13;;;14.03;;
12038;SDS011;6080;48.818;9.526;2023-05-18T17:40:46;10.10;;;9.33;;
12038;SDS011;6080;48.818;9.526;2023-05-18T17:43:12;17.17;;;16.07;;
12038;SDS011;6080;48.818;9.526;2023-05-18T17:45:38;14.03;;;12.93;;
12038;SDS011;6080;48.818;9.526;2023-05-18T17:48:04;12.83;;;11.57;;
12038;SDS011;6080;48.818;9.526;2023-05-18T17:50:30;12.33;;;11.43;;
12038;SDS011;6080;48.818;9.526;2023-05-18T17:52:55;12.77;;;11.67;;
12038;SDS011;6080;48.818;9.526;2023-05-18T17:55:21;12.00;;;11.10;;
12038;SDS011;6080;48.818;9.526;2023-05-18T17:57:47;13.60;;;12.50;;
12038;SDS011;6080;48.818;9.526;2023-05-18T18:00:13;9.90;;;9.30;;
12038;SDS011;6080;48.818;9.526;2023-05-18T18:02:39;10.30;;;9.50;;
12038;SDS011;6080;48.818;9.526;2023-05-18T18:05:05;8.87;;;8.07;;
12038;SDS011;6080;48.818;9.526;2023-05-18T18:07:31;8.23;;;7.53;;
12038;SDS011;6080;48.818;9.526;2023-05-18T18:09:57;9.27;;;8.30;;
12038;SDS011;6080;48.818;9.526;2023-05-18T18:12:23;9.10;;;7.90;;
12038;SDS011;6080;48.818;9.526;2023-05-18T18:14:49;8.57;;;7.60;;